createdAt,value
2023-04-29T00:01:56.002Z,20.50
2023-04-29T00:04:23.024Z,16.38
2023-04-29T00:06:49.950Z,16.38
2023-04-29T00:09:16.854Z,17.63
2023-04-29T00:11:43.706Z,15.55
2023-04-29T00:14:10.578Z,15.63
2023-04-29T00:16:37.465Z,16.60
2023-04-29T00:19:04.413Z,16.15
2023-04-29T00:21:31.347Z,15.50
2023-04-29T00:23:58.198Z,14.97
2023-04-29T00:26:25.131Z,16.20
2023-04-29T00:28:52.006Z,15.88
2023-04-29T00:31:18.870Z,16.17
2023-04-29T00:33:45.686Z,16.15
2023-04-29T00:36:12.549Z,19.02
2023-04-29T00:38:39.421Z,19.50
2023-04-29T00:41:06.816Z,19.25
2023-04-29T00:43:33.675Z,17.35
2023-04-29T00:46:00.610Z,18.73
2023-04-29T00:48:27.556Z,17.20
2023-04-29T00:50:54.447Z,18.27
2023-04-29T00:53:21.787Z,16.92
2023-04-29T00:55:50.695Z,16.90
2023-04-29T00:58:18.921Z,18.85
2023-04-29T01:00:46.450Z,17.23
2023-04-29T01:03:13.971Z,18.15
2023-04-29T01:05:41.000Z,18.58
2023-04-29T01:08:22.945Z,17.05
2023-04-29T01:10:57.030Z,18.73
2023-04-29T01:13:35.393Z,18.13
2023-04-29T01:16:11.366Z,18.45
2023-04-29T01:18:43.533Z,21.48
2023-04-29T01:21:10.391Z,16.30
2023-04-29T01:23:37.297Z,18.07
2023-04-29T01:26:04.332Z,20.35
2023-04-29T01:28:47.918Z,19.60
2023-04-29T01:31:41.966Z,18.10
2023-04-29T01:34:10.617Z,19.10
2023-04-29T01:36:44.527Z,20.02
2023-04-29T01:39:43.637Z,23.25
2023-04-29T01:42:44.148Z,22.35
2023-04-29T01:45:15.350Z,19.63
2023-04-29T01:47:43.084Z,20.77
2023-04-29T01:50:10.508Z,20.15
2023-04-29T01:52:37.430Z,19.55
2023-04-29T01:55:05.007Z,19.55
2023-04-29T01:57:31.945Z,18.50
2023-04-29T01:59:58.853Z,19.23
2023-04-29T02:02:25.812Z,21.48
2023-04-29T02:04:52.827Z,19.23
2023-04-29T02:07:19.847Z,20.67
2023-04-29T02:09:46.732Z,19.75
2023-04-29T02:12:13.609Z,19.98
2023-04-29T02:14:40.518Z,21.37
2023-04-29T02:17:07.407Z,20.63
2023-04-29T02:19:34.318Z,21.00
2023-04-29T02:22:01.207Z,19.02
2023-04-29T02:24:28.093Z,20.52
2023-04-29T02:26:54.962Z,19.70
2023-04-29T02:29:21.850Z,20.55
2023-04-29T02:31:48.742Z,18.92
2023-04-29T02:34:15.671Z,21.30
2023-04-29T02:36:42.556Z,22.25
2023-04-29T02:39:09.458Z,22.33
2023-04-29T02:41:36.646Z,23.95
2023-04-29T02:44:03.518Z,20.88
2023-04-29T02:46:30.444Z,21.85
2023-04-29T02:48:57.354Z,23.20
2023-04-29T02:51:24.306Z,26.02
2023-04-29T02:53:51.165Z,22.27
2023-04-29T02:56:18.042Z,22.00
2023-04-29T02:58:44.903Z,21.30
2023-04-29T03:01:11.784Z,24.02
2023-04-29T03:03:38.804Z,22.48
2023-04-29T03:06:05.892Z,25.38
2023-04-29T03:08:32.771Z,23.15
2023-04-29T03:10:59.650Z,24.23
2023-04-29T03:13:26.512Z,22.88
2023-04-29T03:15:53.362Z,23.55
2023-04-29T03:18:20.227Z,22.27
2023-04-29T03:20:47.092Z,22.52
2023-04-29T03:23:14.009Z,21.60
2023-04-29T03:25:40.938Z,25.00
2023-04-29T03:28:07.944Z,25.25
2023-04-29T03:30:34.832Z,19.65
2023-04-29T03:33:01.823Z,25.48
2023-04-29T03:35:28.771Z,25.17
2023-04-29T03:37:55.616Z,22.27
2023-04-29T03:40:22.474Z,20.83
2023-04-29T03:42:49.475Z,30.53
2023-04-29T03:45:16.379Z,29.33
2023-04-29T03:47:43.301Z,25.20
2023-04-29T03:50:10.442Z,22.65
2023-04-29T03:52:37.364Z,24.05
2023-04-29T03:55:04.543Z,26.58
2023-04-29T03:57:32.016Z,25.15
2023-04-29T03:59:58.898Z,22.42
2023-04-29T04:02:26.012Z,21.60
2023-04-29T04:04:53.147Z,34.47
2023-04-29T04:07:20.167Z,30.38
2023-04-29T04:09:47.008Z,27.88
2023-04-29T04:12:13.910Z,26.75
2023-04-29T04:14:40.782Z,25.60
2023-04-29T04:17:07.659Z,23.00
2023-04-29T04:19:34.519Z,43.30
2023-04-29T04:22:04.220Z,42.50
2023-04-29T04:24:31.060Z,39.95
2023-04-29T04:26:57.934Z,35.47
2023-04-29T04:29:24.840Z,34.53
2023-04-29T04:31:51.720Z,34.88
2023-04-29T04:34:18.590Z,38.70
2023-04-29T04:36:45.449Z,43.22
2023-04-29T04:39:12.294Z,36.72
2023-04-29T04:41:39.540Z,36.00
2023-04-29T04:44:06.442Z,33.85
2023-04-29T04:46:33.313Z,31.23
2023-04-29T04:49:00.202Z,32.90
2023-04-29T04:51:27.195Z,31.00
2023-04-29T04:53:54.061Z,32.92
2023-04-29T04:56:20.908Z,29.95
2023-04-29T04:58:47.754Z,28.10
2023-04-29T05:01:14.775Z,29.40
2023-04-29T05:03:41.843Z,28.20
2023-04-29T05:06:08.773Z,40.30
2023-04-29T05:08:35.650Z,35.72
2023-04-29T05:11:02.552Z,33.50
2023-04-29T05:13:29.400Z,27.98
2023-04-29T05:15:56.239Z,25.77
2023-04-29T05:18:23.150Z,27.80
2023-04-29T05:20:49.973Z,72.10
2023-04-29T05:23:16.819Z,59.88
2023-04-29T05:25:43.687Z,55.63
2023-04-29T05:28:10.574Z,38.58
2023-04-29T05:30:37.733Z,28.88
2023-04-29T05:33:04.741Z,31.00
2023-04-29T05:35:31.623Z,31.93
2023-04-29T05:37:58.494Z,28.15
2023-04-29T05:40:25.396Z,24.30
2023-04-29T05:42:52.256Z,23.60
2023-04-29T05:45:19.130Z,21.85
2023-04-29T05:47:46.019Z,22.35
2023-04-29T05:50:12.919Z,22.37
2023-04-29T05:52:39.839Z,21.15
2023-04-29T05:55:06.857Z,18.77
2023-04-29T05:57:33.736Z,19.55
2023-04-29T06:00:00.657Z,21.42
2023-04-29T06:02:28.243Z,20.08
2023-04-29T06:04:55.708Z,18.90
2023-04-29T06:07:22.829Z,17.75
2023-04-29T06:09:50.186Z,21.67
2023-04-29T06:12:17.247Z,27.05
2023-04-29T06:14:44.130Z,22.83
2023-04-29T06:17:11.588Z,16.33
2023-04-29T06:19:38.524Z,20.13
2023-04-29T06:22:05.376Z,17.08
2023-04-29T06:24:32.251Z,18.30
2023-04-29T06:26:59.143Z,17.70
2023-04-29T06:29:26.033Z,16.40
2023-04-29T06:31:52.972Z,17.70
2023-04-29T06:34:19.876Z,14.70
2023-04-29T06:36:46.734Z,18.08
2023-04-29T06:39:13.604Z,13.55
2023-04-29T06:41:40.471Z,15.70
2023-04-29T06:44:07.340Z,16.23
2023-04-29T06:46:34.258Z,16.00
2023-04-29T06:49:01.202Z,19.35
2023-04-29T06:51:28.078Z,21.80
2023-04-29T06:53:55.036Z,20.25
2023-04-29T06:56:21.886Z,14.82
2023-04-29T06:58:48.735Z,15.77
2023-04-29T07:01:24.421Z,19.45
2023-04-29T07:03:51.782Z,22.52
2023-04-29T07:06:18.819Z,15.80
2023-04-29T07:08:45.700Z,19.08
2023-04-29T07:11:12.730Z,15.05
2023-04-29T07:13:39.601Z,18.25
2023-04-29T07:16:16.046Z,16.02
2023-04-29T07:18:45.441Z,15.90
2023-04-29T07:21:12.294Z,17.17
2023-04-29T07:23:39.312Z,18.63
2023-04-29T07:26:10.959Z,15.57
2023-04-29T07:28:37.853Z,20.58
2023-04-29T07:31:04.817Z,16.52
2023-04-29T07:33:31.788Z,16.38
2023-04-29T07:35:58.672Z,16.20
2023-04-29T07:38:25.587Z,15.10
2023-04-29T07:40:52.711Z,14.80
2023-04-29T07:43:19.631Z,15.18
2023-04-29T07:45:46.480Z,14.10
2023-04-29T07:48:13.389Z,16.23
2023-04-29T07:50:40.311Z,13.27
2023-04-29T07:53:07.209Z,14.63
2023-04-29T07:55:34.060Z,16.23
2023-04-29T07:58:00.972Z,16.25
2023-04-29T08:00:27.811Z,18.90
2023-04-29T08:02:55.981Z,15.40
2023-04-29T08:05:24.175Z,13.50
2023-04-29T08:07:51.548Z,14.10
2023-04-29T08:10:19.478Z,15.47
2023-04-29T08:12:46.973Z,13.07
2023-04-29T08:15:13.979Z,14.87
2023-04-29T08:17:41.023Z,15.35
2023-04-29T08:20:08.549Z,11.93
2023-04-29T08:22:35.604Z,12.20
2023-04-29T08:25:04.100Z,13.68
2023-04-29T08:27:31.195Z,12.85
2023-04-29T08:29:58.099Z,17.27
2023-04-29T08:32:25.011Z,13.52
2023-04-29T08:34:52.230Z,13.65
2023-04-29T08:37:19.189Z,15.00
2023-04-29T08:39:46.132Z,17.60
2023-04-29T08:42:13.268Z,14.27
2023-04-29T08:44:43.637Z,15.07
2023-04-29T08:47:10.989Z,16.10
2023-04-29T08:49:38.049Z,13.07
2023-04-29T08:52:05.293Z,13.70
2023-04-29T08:54:32.534Z,12.63
2023-04-29T08:57:00.576Z,13.80
2023-04-29T08:59:29.243Z,14.82
2023-04-29T09:01:57.533Z,16.23
2023-04-29T09:04:27.497Z,14.55
2023-04-29T09:06:58.008Z,14.00
2023-04-29T09:09:28.288Z,12.32
2023-04-29T09:11:55.144Z,14.27
2023-04-29T09:14:23.403Z,14.18
2023-04-29T09:16:50.546Z,14.00
2023-04-29T09:19:33.811Z,14.90
2023-04-29T09:22:02.354Z,14.57
2023-04-29T09:24:30.571Z,14.15
2023-04-29T09:26:58.384Z,14.98
2023-04-29T09:29:25.743Z,10.38
2023-04-29T09:31:52.810Z,16.00
2023-04-29T09:34:35.229Z,13.77
2023-04-29T09:37:02.105Z,11.65
2023-04-29T09:39:39.214Z,12.68
2023-04-29T09:42:06.183Z,11.18
2023-04-29T09:44:35.039Z,12.63
2023-04-29T09:47:06.673Z,14.73
2023-04-29T09:49:39.011Z,14.65
2023-04-29T09:52:11.032Z,14.05
2023-04-29T09:54:39.224Z,13.02
2023-04-29T09:57:07.473Z,11.80
2023-04-29T09:59:36.493Z,11.63
2023-04-29T10:02:13.019Z,13.40
2023-04-29T10:04:41.641Z,14.00
2023-04-29T10:07:09.306Z,12.52
2023-04-29T10:09:40.036Z,11.90
2023-04-29T10:12:07.827Z,10.73
2023-04-29T10:14:43.567Z,8.85
2023-04-29T10:17:27.019Z,11.50
2023-04-29T10:20:03.046Z,12.80
2023-04-29T10:22:37.090Z,11.60
2023-04-29T10:25:07.737Z,12.15
2023-04-29T10:27:35.372Z,10.18
2023-04-29T10:30:03.277Z,9.98
2023-04-29T10:32:39.933Z,10.77
2023-04-29T10:35:18.592Z,14.80
2023-04-29T10:37:46.949Z,11.48
2023-04-29T10:40:36.523Z,17.25
2023-04-29T10:43:03.719Z,13.07
2023-04-29T10:45:32.200Z,12.57
2023-04-29T10:48:04.896Z,11.82
2023-04-29T10:50:49.817Z,10.65
2023-04-29T10:53:19.884Z,16.73
2023-04-29T10:55:54.812Z,10.30
2023-04-29T10:58:45.172Z,11.80
2023-04-29T11:01:17.381Z,10.05
2023-04-29T11:03:47.168Z,9.70
2023-04-29T11:06:15.046Z,9.85
2023-04-29T11:08:41.905Z,13.15
2023-04-29T11:11:09.357Z,13.03
2023-04-29T11:13:46.873Z,14.07
2023-04-29T11:16:13.797Z,12.03
2023-04-29T11:19:05.789Z,8.55
2023-04-29T11:21:37.029Z,9.30
2023-04-29T11:24:05.020Z,11.70
2023-04-29T11:26:35.931Z,10.93
2023-04-29T11:29:02.906Z,12.32
2023-04-29T11:31:33.661Z,13.82
2023-04-29T11:34:00.921Z,11.18
2023-04-29T11:36:27.872Z,15.00
2023-04-29T11:38:54.760Z,9.40
2023-04-29T11:41:21.915Z,12.07
2023-04-29T11:43:56.363Z,10.13
2023-04-29T11:46:23.304Z,11.07
2023-04-29T11:48:50.538Z,12.13
2023-04-29T11:51:18.622Z,9.10
2023-04-29T11:53:45.982Z,9.47
2023-04-29T11:56:13.081Z,13.95
2023-04-29T11:58:42.107Z,17.67
2023-04-29T12:01:09.059Z,15.45
2023-04-29T12:03:36.330Z,9.57
2023-04-29T12:06:03.881Z,10.85
2023-04-29T12:08:31.163Z,11.50
2023-04-29T12:10:59.610Z,10.95
2023-04-29T12:13:29.140Z,9.43
2023-04-29T12:15:57.678Z,10.40
2023-04-29T12:18:24.867Z,9.48
2023-04-29T12:20:52.077Z,9.57
2023-04-29T12:23:21.423Z,8.97
2023-04-29T12:25:59.635Z,8.65
2023-04-29T12:28:27.270Z,9.60
2023-04-29T12:30:54.951Z,10.52
2023-04-29T12:33:26.735Z,14.07
2023-04-29T12:35:56.451Z,10.32
2023-04-29T12:38:27.393Z,9.98
2023-04-29T12:40:59.369Z,17.30
2023-04-29T12:43:30.393Z,10.05
2023-04-29T12:46:05.577Z,12.37
2023-04-29T12:48:34.081Z,8.25
2023-04-29T12:51:02.237Z,8.80
2023-04-29T12:53:32.202Z,12.43
2023-04-29T12:55:59.606Z,10.85
2023-04-29T12:58:29.542Z,10.35
2023-04-29T13:00:57.323Z,10.88
2023-04-29T13:03:24.887Z,10.13
2023-04-29T13:05:52.043Z,9.73
2023-04-29T13:08:19.474Z,12.18
2023-04-29T13:10:46.398Z,10.70
2023-04-29T13:13:13.303Z,9.30
2023-04-29T13:15:40.241Z,10.40
2023-04-29T13:18:07.435Z,9.63
2023-04-29T13:20:41.008Z,10.52
2023-04-29T13:23:09.247Z,10.80
2023-04-29T13:25:36.292Z,11.15
2023-04-29T13:28:03.332Z,9.82
2023-04-29T13:30:30.216Z,12.60
2023-04-29T13:33:03.129Z,10.57
2023-04-29T13:35:36.551Z,8.63
2023-04-29T13:38:03.421Z,13.70
2023-04-29T13:40:31.218Z,9.00
2023-04-29T13:43:06.040Z,9.30
2023-04-29T13:45:39.830Z,8.88
2023-04-29T13:48:26.047Z,10.02
2023-04-29T13:54:04.903Z,8.85
2023-04-29T13:59:31.511Z,9.60
2023-04-29T14:04:00.441Z,9.90
2023-04-29T14:06:27.555Z,8.50
2023-04-29T14:08:54.404Z,10.18
2023-04-29T14:11:21.289Z,9.37
2023-04-29T14:13:48.157Z,10.60
2023-04-29T14:16:15.081Z,8.70
2023-04-29T14:18:41.919Z,9.25
2023-04-29T14:21:08.931Z,9.50
2023-04-29T14:23:35.823Z,10.85
2023-04-29T14:26:22.398Z,9.15
2023-04-29T14:28:49.716Z,11.27
2023-04-29T14:31:16.646Z,11.60
2023-04-29T14:33:43.579Z,9.10
2023-04-29T14:36:10.458Z,9.13
2023-04-29T14:38:37.321Z,11.10
2023-04-29T14:41:04.265Z,9.65
2023-04-29T14:43:31.166Z,9.82
2023-04-29T14:45:58.075Z,11.60
2023-04-29T14:48:24.951Z,11.45
2023-04-29T14:50:51.809Z,10.48
2023-04-29T14:53:18.674Z,8.55
2023-04-29T14:55:45.570Z,12.18
2023-04-29T14:58:12.392Z,11.25
2023-04-29T15:00:39.260Z,12.02
2023-04-29T15:03:06.200Z,14.10
2023-04-29T15:05:33.120Z,11.33
2023-04-29T15:07:59.987Z,10.13
2023-04-29T15:10:27.223Z,11.43
2023-04-29T15:12:54.717Z,35.53
2023-04-29T15:15:22.270Z,51.77
2023-04-29T15:17:49.331Z,21.17
2023-04-29T15:20:16.648Z,17.10
2023-04-29T15:22:43.568Z,12.50
2023-04-29T15:25:10.708Z,13.70
2023-04-29T15:27:38.323Z,14.52
2023-04-29T15:30:06.379Z,12.63
2023-04-29T15:32:33.262Z,19.30
2023-04-29T15:35:04.039Z,13.90
2023-04-29T15:37:31.122Z,13.48
2023-04-29T15:40:01.359Z,13.45
2023-04-29T15:42:28.554Z,30.23
2023-04-29T15:44:55.466Z,13.32
2023-04-29T15:47:22.553Z,13.93
2023-04-29T15:49:49.442Z,13.50
2023-04-29T15:52:16.345Z,16.53
2023-04-29T15:54:43.198Z,15.45
2023-04-29T15:57:10.164Z,14.57
2023-04-29T15:59:37.005Z,14.20
2023-04-29T16:02:03.854Z,18.05
2023-04-29T16:04:30.791Z,13.88
2023-04-29T16:06:57.654Z,16.92
2023-04-29T16:09:24.561Z,15.17
2023-04-29T16:11:51.441Z,14.00
2023-04-29T16:14:18.343Z,11.90
2023-04-29T16:16:45.252Z,13.55
2023-04-29T16:19:12.168Z,14.02
2023-04-29T16:21:39.031Z,14.10
2023-04-29T16:24:05.863Z,16.55
2023-04-29T16:26:32.751Z,14.65
2023-04-29T16:28:59.627Z,16.30
2023-04-29T16:31:26.552Z,13.77
2023-04-29T16:33:53.474Z,12.38
2023-04-29T16:36:20.318Z,13.40
2023-04-29T16:38:47.158Z,14.05
2023-04-29T16:41:14.131Z,12.70
2023-04-29T16:43:40.995Z,12.98
2023-04-29T16:46:07.896Z,12.53
2023-04-29T16:48:34.896Z,14.32
2023-04-29T16:51:02.434Z,13.75
2023-04-29T16:53:29.319Z,13.15
2023-04-29T16:55:56.409Z,14.95
2023-04-29T16:58:23.383Z,17.25
2023-04-29T17:00:50.453Z,9.88
2023-04-29T17:03:17.345Z,6.00
2023-04-29T17:05:44.373Z,5.00
2023-04-29T17:08:11.263Z,8.48
2023-04-29T17:10:38.113Z,5.97
2023-04-29T17:13:05.042Z,6.68
2023-04-29T17:15:31.915Z,8.00
2023-04-29T17:17:58.808Z,5.90
2023-04-29T17:20:25.754Z,8.35
2023-04-29T17:22:52.731Z,8.93
2023-04-29T17:25:19.687Z,11.48
2023-04-29T17:27:46.534Z,8.75
2023-04-29T17:30:13.692Z,6.97
2023-04-29T17:32:40.684Z,11.65
2023-04-29T17:35:08.799Z,10.23
2023-04-29T17:37:35.896Z,7.15
2023-04-29T17:40:03.323Z,10.68
2023-04-29T17:42:30.188Z,9.13
2023-04-29T17:44:57.042Z,7.40
2023-04-29T17:47:23.975Z,7.53
2023-04-29T17:49:50.880Z,7.77
2023-04-29T17:52:18.040Z,11.15
2023-04-29T17:54:44.904Z,7.78
2023-04-29T17:57:11.769Z,9.57
2023-04-29T17:59:38.622Z,7.38
2023-04-29T18:02:05.543Z,8.05
2023-04-29T18:04:32.422Z,7.85
2023-04-29T18:06:59.247Z,7.22
2023-04-29T18:09:26.137Z,7.40
2023-04-29T18:11:53.122Z,9.52
2023-04-29T18:14:20.003Z,7.72
2023-04-29T18:16:46.894Z,8.90
2023-04-29T18:19:13.928Z,7.00
2023-04-29T18:21:40.791Z,8.77
2023-04-29T18:24:07.650Z,10.30
2023-04-29T18:26:34.525Z,9.10
2023-04-29T18:29:01.376Z,8.93
2023-04-29T18:31:28.299Z,8.77
2023-04-29T18:33:55.245Z,9.88
2023-04-29T18:36:22.188Z,10.55
2023-04-29T18:38:49.264Z,9.10
2023-04-29T18:41:16.119Z,9.63
2023-04-29T18:43:46.610Z,9.57
2023-04-29T18:46:13.485Z,9.30
2023-04-29T18:48:40.354Z,9.40
2023-04-29T18:51:07.258Z,11.90
2023-04-29T18:53:34.306Z,12.32
2023-04-29T18:56:01.236Z,10.57
2023-04-29T18:58:28.188Z,10.98
2023-04-29T19:00:55.239Z,10.90
2023-04-29T19:03:22.084Z,12.60
2023-04-29T19:05:48.944Z,11.18
2023-04-29T19:08:15.807Z,12.77
2023-04-29T19:10:43.270Z,9.30
2023-04-29T19:13:10.636Z,8.40
2023-04-29T19:15:37.924Z,9.57
2023-04-29T19:18:04.991Z,9.75
2023-04-29T19:20:32.092Z,11.23
2023-04-29T19:22:59.011Z,10.80
2023-04-29T19:25:26.020Z,8.65
2023-04-29T19:27:53.482Z,8.80
2023-04-29T19:30:20.717Z,7.73
2023-04-29T19:32:48.155Z,8.32
2023-04-29T19:35:15.129Z,11.45
2023-04-29T19:37:41.976Z,17.67
2023-04-29T19:40:09.423Z,34.47
2023-04-29T19:42:36.432Z,20.83
2023-04-29T19:45:05.506Z,13.88
2023-04-29T19:47:32.432Z,14.32
2023-04-29T19:49:59.316Z,10.80
2023-04-29T19:52:26.241Z,15.00
2023-04-29T19:54:53.102Z,11.60
2023-04-29T19:57:19.951Z,13.98
2023-04-29T19:59:46.836Z,14.13
2023-04-29T20:02:13.801Z,13.23
2023-04-29T20:04:40.711Z,15.02
2023-04-29T20:07:07.616Z,11.98
2023-04-29T20:09:34.477Z,11.10
2023-04-29T20:12:01.359Z,18.40
2023-04-29T20:14:28.239Z,16.10
2023-04-29T20:16:55.217Z,15.85
2023-04-29T20:19:22.171Z,14.25
2023-04-29T20:21:48.986Z,8.30
2023-04-29T20:24:15.810Z,11.48
2023-04-29T20:26:42.719Z,13.02
2023-04-29T20:29:09.654Z,11.70
2023-04-29T20:31:36.689Z,12.45
2023-04-29T20:34:03.606Z,12.30
2023-04-29T20:36:30.478Z,10.80
2023-04-29T20:38:57.346Z,12.32
2023-04-29T20:41:27.153Z,11.77
2023-04-29T20:43:54.062Z,10.02
2023-04-29T20:46:21.125Z,9.90
2023-04-29T20:48:48.307Z,11.05
2023-04-29T20:51:15.236Z,9.98
2023-04-29T20:53:42.078Z,9.00
2023-04-29T20:56:08.938Z,8.65
2023-04-29T20:58:35.868Z,8.73
2023-04-29T21:01:02.766Z,9.23
2023-04-29T21:03:29.685Z,9.70
2023-04-29T21:05:57.108Z,10.55
2023-04-29T21:08:24.032Z,20.13
2023-04-29T21:10:50.933Z,21.05
2023-04-29T21:13:17.989Z,11.02
2023-04-29T21:15:45.593Z,12.55
2023-04-29T21:18:12.935Z,12.30
2023-04-29T21:20:40.318Z,14.00
2023-04-29T21:23:07.242Z,9.68
2023-04-29T21:25:34.245Z,9.32
2023-04-29T21:28:01.131Z,9.55
2023-04-29T21:30:28.041Z,10.85
2023-04-29T21:32:54.959Z,9.40
2023-04-29T21:35:21.828Z,9.02
2023-04-29T21:37:48.743Z,9.38
2023-04-29T21:40:15.643Z,13.38
2023-04-29T21:42:44.045Z,9.85
2023-04-29T21:45:14.445Z,8.50
2023-04-29T21:47:41.607Z,9.65
2023-04-29T21:50:09.966Z,7.55
2023-04-29T21:52:37.223Z,10.20
2023-04-29T21:55:04.802Z,10.95
2023-04-29T21:57:42.628Z,10.35
2023-04-29T22:00:11.926Z,11.85
2023-04-29T22:02:38.910Z,10.85
2023-04-29T22:05:06.078Z,11.20
2023-04-29T22:07:32.968Z,11.10
2023-04-29T22:09:59.809Z,10.07
2023-04-29T22:12:26.956Z,10.98
2023-04-29T22:14:53.842Z,9.95
2023-04-29T22:17:20.782Z,9.20
2023-04-29T22:19:47.807Z,11.13
2023-04-29T22:22:14.673Z,12.50
2023-04-29T22:24:41.539Z,11.02
2023-04-29T22:27:08.476Z,10.27
2023-04-29T22:29:35.359Z,10.40
2023-04-29T22:32:02.259Z,7.03
2023-04-29T22:34:29.098Z,10.32
2023-04-29T22:36:55.982Z,8.93
2023-04-29T22:39:22.833Z,12.33
2023-04-29T22:41:49.671Z,12.93
2023-04-29T22:44:16.719Z,9.70
2023-04-29T22:46:43.535Z,9.30
2023-04-29T22:49:11.054Z,12.47
2023-04-29T22:51:38.093Z,12.38
2023-04-29T22:54:04.995Z,11.98
2023-04-29T22:56:31.851Z,12.60
2023-04-29T22:58:59.027Z,10.13
2023-04-29T23:01:25.918Z,9.38
2023-04-29T23:03:52.765Z,10.60
2023-04-29T23:06:19.801Z,12.20
2023-04-29T23:08:46.839Z,10.82
2023-04-29T23:11:13.672Z,12.07
2023-04-29T23:13:40.564Z,12.23
2023-04-29T23:16:10.626Z,14.10
2023-04-29T23:18:37.850Z,11.25
2023-04-29T23:21:04.953Z,12.68
2023-04-29T23:23:31.940Z,12.55
2023-04-29T23:25:58.844Z,12.73
2023-04-29T23:28:25.781Z,10.77
2023-04-29T23:30:52.715Z,13.80
2023-04-29T23:33:19.599Z,9.65
2023-04-29T23:35:53.123Z,12.70
2023-04-29T23:38:20.060Z,10.60
2023-04-29T23:40:47.301Z,11.77
2023-04-29T23:43:14.387Z,12.63
2023-04-29T23:45:43.448Z,10.55
2023-04-29T23:48:10.329Z,10.02
2023-04-29T23:50:37.200Z,13.80
2023-04-29T23:53:04.274Z,11.55
2023-04-29T23:55:31.196Z,9.10
2023-04-29T23:57:58.200Z,15.55
